createdAt,value
2017-07-06T00:01:25.368Z,13.10
2017-07-06T00:03:52.965Z,10.27
2017-07-06T00:06:20.515Z,13.57
2017-07-06T00:08:48.040Z,12.20
2017-07-06T00:11:15.865Z,18.93
2017-07-06T00:13:43.374Z,11.50
2017-07-06T00:16:10.896Z,10.07
2017-07-06T00:18:38.457Z,13.80
2017-07-06T00:21:06.049Z,11.67
2017-07-06T00:23:33.552Z,15.20
2017-07-06T00:26:01.431Z,11.33
2017-07-06T00:28:28.936Z,15.87
2017-07-06T00:30:56.444Z,13.70
2017-07-06T00:33:24.344Z,15.07
2017-07-06T00:35:51.856Z,14.27
2017-07-06T00:38:19.374Z,11.80
2017-07-06T00:40:46.980Z,11.67
2017-07-06T00:43:14.492Z,13.83
2017-07-06T00:45:41.999Z,18.13
2017-07-06T00:48:09.557Z,12.97
2017-07-06T00:50:37.100Z,17.33
2017-07-06T00:53:04.682Z,13.10
2017-07-06T00:55:32.293Z,13.53
2017-07-06T00:57:59.876Z,16.57
2017-07-06T01:00:27.432Z,17.40
2017-07-06T01:02:55.003Z,14.90
2017-07-06T01:05:23.551Z,15.33
2017-07-06T01:07:51.063Z,11.23
2017-07-06T01:10:18.816Z,12.63
2017-07-06T01:12:48.140Z,12.00
2017-07-06T01:15:15.667Z,15.47
2017-07-06T01:17:43.288Z,14.50
2017-07-06T01:20:11.954Z,11.33
2017-07-06T01:22:39.540Z,12.53
2017-07-06T01:25:07.335Z,16.50
2017-07-06T01:27:35.624Z,11.90
2017-07-06T01:30:03.143Z,12.77
2017-07-06T01:32:30.693Z,14.70
2017-07-06T01:34:58.279Z,13.53
2017-07-06T01:37:25.847Z,12.37
2017-07-06T01:39:53.403Z,13.87
2017-07-06T01:42:21.368Z,13.33
2017-07-06T01:44:48.876Z,19.37
2017-07-06T01:47:16.388Z,14.53
2017-07-06T01:49:44.047Z,13.07
2017-07-06T01:52:11.555Z,13.00
2017-07-06T01:54:39.060Z,16.73
2017-07-06T01:57:06.880Z,17.37
2017-07-06T01:59:34.393Z,11.60
2017-07-06T02:02:01.900Z,15.70
2017-07-06T02:04:29.751Z,11.80
2017-07-06T02:06:57.296Z,16.27
2017-07-06T02:09:24.932Z,13.27
2017-07-06T02:11:52.903Z,14.80
2017-07-06T02:14:20.586Z,11.83
2017-07-06T02:16:48.127Z,13.27
2017-07-06T02:19:16.004Z,12.07
2017-07-06T02:21:43.515Z,16.03
2017-07-06T02:24:11.024Z,14.00
2017-07-06T02:26:38.937Z,15.90
2017-07-06T02:29:06.446Z,14.93
2017-07-06T02:31:34.004Z,13.80
2017-07-06T02:34:01.961Z,14.80
2017-07-06T02:36:29.664Z,15.10
2017-07-06T02:38:57.215Z,11.97
2017-07-06T02:41:24.963Z,13.60
2017-07-06T02:43:52.523Z,18.93
2017-07-06T02:46:20.039Z,14.57
2017-07-06T02:48:47.904Z,14.90
2017-07-06T02:51:15.709Z,14.27
2017-07-06T02:53:43.224Z,14.13
2017-07-06T02:56:11.437Z,18.80
2017-07-06T02:58:38.959Z,15.87
2017-07-06T03:01:06.472Z,15.80
2017-07-06T03:03:34.068Z,15.27
2017-07-06T03:06:01.584Z,16.43
2017-07-06T03:08:29.131Z,19.33
2017-07-06T03:10:57.024Z,15.63
2017-07-06T03:13:24.532Z,14.90
2017-07-06T03:15:52.044Z,15.37
2017-07-06T03:18:19.604Z,15.20
2017-07-06T03:20:47.116Z,14.13
2017-07-06T03:23:14.800Z,14.40
2017-07-06T03:25:42.375Z,15.33
2017-07-06T03:28:09.895Z,17.10
2017-07-06T03:30:37.469Z,17.67
2017-07-06T03:33:05.028Z,13.20
2017-07-06T03:35:32.563Z,15.07
2017-07-06T03:38:00.267Z,18.40
2017-07-06T03:40:27.824Z,14.90
2017-07-06T03:42:55.381Z,16.90
2017-07-06T03:45:22.861Z,14.77
2017-07-06T03:47:50.758Z,17.13
2017-07-06T03:50:18.271Z,14.90
2017-07-06T03:52:46.096Z,17.67
2017-07-06T03:55:13.956Z,21.23
2017-07-06T03:57:41.473Z,17.20
2017-07-06T04:00:09.020Z,16.57
2017-07-06T04:02:36.612Z,15.50
2017-07-06T04:05:04.445Z,17.40
2017-07-06T04:07:31.954Z,16.70
2017-07-06T04:10:00.018Z,19.13
2017-07-06T04:12:27.880Z,18.60
2017-07-06T04:14:55.453Z,12.20
2017-07-06T04:17:23.028Z,15.10
2017-07-06T04:19:50.535Z,11.50
2017-07-06T04:22:18.048Z,20.63
2017-07-06T04:24:45.832Z,18.13
2017-07-06T04:27:13.340Z,14.63
2017-07-06T04:29:40.855Z,13.37
2017-07-06T04:32:08.476Z,14.80
2017-07-06T04:34:35.984Z,12.90
2017-07-06T04:37:03.486Z,10.50
2017-07-06T04:39:31.253Z,12.07
2017-07-06T04:41:58.764Z,13.90
2017-07-06T04:44:26.277Z,11.00
2017-07-06T04:46:53.863Z,10.90
2017-07-06T04:49:21.368Z,14.23
2017-07-06T04:51:48.899Z,13.33
2017-07-06T04:54:16.481Z,14.40
2017-07-06T04:56:43.993Z,11.30
2017-07-06T04:59:11.517Z,11.70
2017-07-06T05:01:39.142Z,11.67
2017-07-06T05:04:06.644Z,10.10
2017-07-06T05:06:34.150Z,10.03
2017-07-06T05:09:01.712Z,10.57
2017-07-06T05:11:29.229Z,10.67
2017-07-06T05:13:56.737Z,10.90
2017-07-06T05:16:24.372Z,10.70
2017-07-06T05:18:51.894Z,12.67
2017-07-06T05:21:19.661Z,13.97
2017-07-06T05:23:47.168Z,11.50
2017-07-06T05:26:14.691Z,11.50
2017-07-06T05:28:42.248Z,10.40
2017-07-06T05:31:09.805Z,17.20
2017-07-06T05:33:38.081Z,12.00
2017-07-06T05:36:05.870Z,16.70
2017-07-06T05:38:33.502Z,11.43
2017-07-06T05:41:01.025Z,10.90
2017-07-06T05:43:28.720Z,13.13
2017-07-06T05:45:56.260Z,15.37
2017-07-06T05:48:23.812Z,14.13
2017-07-06T05:50:51.564Z,15.70
2017-07-06T05:53:19.075Z,13.63
2017-07-06T05:55:46.582Z,10.00
2017-07-06T05:58:14.640Z,10.70
2017-07-06T06:00:42.207Z,12.97
2017-07-06T06:03:10.019Z,11.03
2017-07-06T06:05:37.837Z,11.63
2017-07-06T06:08:05.560Z,13.73
2017-07-06T06:10:33.207Z,15.33
2017-07-06T06:13:03.839Z,11.97
2017-07-06T06:15:31.395Z,11.40
2017-07-06T06:17:59.159Z,11.93
2017-07-06T06:20:26.933Z,16.23
2017-07-06T06:22:54.610Z,11.80
2017-07-06T06:25:22.347Z,15.90
2017-07-06T06:27:50.241Z,13.53
2017-07-06T06:30:17.744Z,11.17
2017-07-06T06:32:45.261Z,12.40
2017-07-06T06:35:13.853Z,14.40
2017-07-06T06:37:41.610Z,9.10
2017-07-06T06:40:09.272Z,10.97
2017-07-06T06:42:36.988Z,9.07
2017-07-06T06:45:04.850Z,10.83
2017-07-06T06:47:33.548Z,11.40
2017-07-06T06:50:01.343Z,11.10
2017-07-06T06:52:29.008Z,12.50
2017-07-06T06:54:56.732Z,10.00
2017-07-06T06:57:24.654Z,14.07
2017-07-06T06:59:52.170Z,11.53
2017-07-06T07:02:19.925Z,12.10
2017-07-06T07:04:47.747Z,12.17
2017-07-06T07:07:15.491Z,12.20
2017-07-06T07:09:43.101Z,18.30
2017-07-06T07:12:10.685Z,16.10
2017-07-06T07:14:38.307Z,9.30
2017-07-06T07:17:05.845Z,11.10
2017-07-06T07:19:33.736Z,16.13
2017-07-06T07:22:01.550Z,9.63
2017-07-06T07:24:29.232Z,9.20
2017-07-06T07:26:57.333Z,10.07
2017-07-06T07:29:24.847Z,11.97
2017-07-06T07:31:52.356Z,12.50
2017-07-06T07:34:19.948Z,10.03
2017-07-06T07:36:47.460Z,8.80
2017-07-06T07:39:14.966Z,8.60
2017-07-06T07:41:42.511Z,8.93
2017-07-06T07:44:10.020Z,9.00
2017-07-06T07:46:37.972Z,8.83
2017-07-06T07:49:05.636Z,7.43
2017-07-06T07:51:33.368Z,8.77
2017-07-06T07:54:00.874Z,9.00
2017-07-06T07:56:28.524Z,11.70
2017-07-06T07:58:56.032Z,8.00
2017-07-06T08:01:23.844Z,10.00
2017-07-06T08:03:51.476Z,9.70
2017-07-06T08:06:18.996Z,9.60
2017-07-06T08:08:46.508Z,11.57
2017-07-06T08:11:14.396Z,9.90
2017-07-06T08:13:42.472Z,8.57
2017-07-06T08:16:10.056Z,15.53
2017-07-06T08:18:37.847Z,9.00
2017-07-06T08:21:05.659Z,9.57
2017-07-06T08:23:33.479Z,8.90
2017-07-06T08:26:01.065Z,11.27
2017-07-06T08:28:28.568Z,8.13
2017-07-06T08:30:56.084Z,13.23
2017-07-06T08:33:23.912Z,8.00
2017-07-06T08:35:51.445Z,8.60
2017-07-06T08:38:18.953Z,8.80
2017-07-06T08:40:46.764Z,9.67
2017-07-06T08:43:14.267Z,8.03
2017-07-06T08:45:41.785Z,8.70
2017-07-06T08:48:09.435Z,8.47
2017-07-06T08:50:36.943Z,11.00
2017-07-06T08:53:04.540Z,12.03
2017-07-06T08:55:32.308Z,11.40
2017-07-06T08:57:59.953Z,9.47
2017-07-06T09:00:27.708Z,9.70
2017-07-06T09:02:55.689Z,7.27
2017-07-06T09:05:24.298Z,9.23
2017-07-06T09:07:52.085Z,7.93
2017-07-06T09:10:19.644Z,11.10
2017-07-06T09:12:47.155Z,10.47
2017-07-06T09:15:14.704Z,7.60
2017-07-06T09:17:42.932Z,10.17
2017-07-06T09:20:10.495Z,12.90
2017-07-06T09:22:37.995Z,7.67
2017-07-06T09:25:05.558Z,7.60
2017-07-06T09:27:33.055Z,7.93
2017-07-06T09:30:00.558Z,9.03
2017-07-06T09:32:28.411Z,7.13
2017-07-06T09:34:55.924Z,8.17
2017-07-06T09:37:23.495Z,7.10
2017-07-06T09:39:51.061Z,7.33
2017-07-06T09:42:19.431Z,7.27
2017-07-06T09:44:46.939Z,7.50
2017-07-06T09:47:14.522Z,8.30
2017-07-06T09:49:42.408Z,8.23
2017-07-06T09:52:10.065Z,7.63
2017-07-06T09:54:38.208Z,6.80
2017-07-06T09:57:05.771Z,7.43
2017-07-06T09:59:33.788Z,6.70
2017-07-06T10:02:01.031Z,7.03
2017-07-06T10:04:28.988Z,6.93
2017-07-06T10:06:56.773Z,8.37
2017-07-06T10:09:24.320Z,7.10
2017-07-06T10:11:52.064Z,6.17
2017-07-06T10:14:19.569Z,6.03
2017-07-06T10:16:47.122Z,6.87
2017-07-06T10:19:15.211Z,8.37
2017-07-06T10:21:42.724Z,8.03
2017-07-06T10:24:10.232Z,7.27
2017-07-06T10:26:38.033Z,6.17
2017-07-06T10:29:05.561Z,6.83
2017-07-06T10:31:33.184Z,6.47
2017-07-06T10:34:00.767Z,6.40
2017-07-06T10:36:28.275Z,7.30
2017-07-06T10:38:55.784Z,4.97
2017-07-06T10:41:23.564Z,6.43
2017-07-06T10:43:51.064Z,5.53
2017-07-06T10:46:18.564Z,6.67
2017-07-06T10:48:46.452Z,11.47
2017-07-06T10:51:13.972Z,5.93
2017-07-06T10:53:41.475Z,6.50
2017-07-06T10:56:09.381Z,6.03
2017-07-06T10:58:36.889Z,9.83
2017-07-06T11:01:04.620Z,8.00
2017-07-06T11:03:32.880Z,6.00
2017-07-06T11:06:00.675Z,6.53
2017-07-06T11:08:28.323Z,5.70
2017-07-06T11:10:56.125Z,5.37
2017-07-06T11:13:23.890Z,5.23
2017-07-06T11:15:51.543Z,5.83
2017-07-06T11:18:19.673Z,8.40
2017-07-06T11:20:47.272Z,13.70
2017-07-06T11:23:14.863Z,4.70
2017-07-06T11:25:42.403Z,5.20
2017-07-06T11:28:10.551Z,5.13
2017-07-06T11:30:38.061Z,5.13
2017-07-06T11:33:05.607Z,5.03
2017-07-06T11:35:33.128Z,6.13
2017-07-06T11:38:00.768Z,5.73
2017-07-06T11:40:28.324Z,4.77
2017-07-06T11:42:55.850Z,9.90
2017-07-06T11:45:23.488Z,4.80
2017-07-06T11:47:51.256Z,9.67
2017-07-06T11:50:19.007Z,6.00
2017-07-06T11:52:46.669Z,5.67
2017-07-06T11:55:14.460Z,5.50
2017-07-06T11:57:42.180Z,5.90
2017-07-06T12:00:11.813Z,5.80
2017-07-06T12:02:39.606Z,5.87
2017-07-06T12:05:07.109Z,6.10
2017-07-06T12:07:34.612Z,5.20
2017-07-06T12:10:02.402Z,6.17
2017-07-06T12:12:30.246Z,4.40
2017-07-06T12:14:57.855Z,6.87
2017-07-06T12:17:25.831Z,5.10
2017-07-06T12:19:53.340Z,4.60
2017-07-06T12:22:20.841Z,5.23
2017-07-06T12:24:48.744Z,4.97
2017-07-06T12:27:16.603Z,5.77
2017-07-06T12:29:44.275Z,5.30
2017-07-06T12:32:12.056Z,4.87
2017-07-06T12:34:39.999Z,4.77
2017-07-06T12:37:07.554Z,4.50
2017-07-06T12:39:35.139Z,5.50
2017-07-06T12:42:02.855Z,4.23
2017-07-06T12:44:30.357Z,5.20
2017-07-06T12:46:57.942Z,7.50
2017-07-06T12:49:25.584Z,9.63
2017-07-06T12:51:53.169Z,8.80
2017-07-06T12:54:20.740Z,6.60
2017-07-06T12:56:48.268Z,4.47
2017-07-06T12:59:15.809Z,5.90
2017-07-06T13:01:43.641Z,6.17
2017-07-06T13:04:11.235Z,10.03
2017-07-06T13:06:38.740Z,7.63
2017-07-06T13:09:06.324Z,5.70
2017-07-06T13:11:33.828Z,5.43
2017-07-06T13:14:01.494Z,6.43
2017-07-06T13:16:29.056Z,12.87
2017-07-06T13:18:56.563Z,6.40
2017-07-06T13:21:24.061Z,5.67
2017-07-06T13:23:51.610Z,5.53
2017-07-06T13:26:19.148Z,6.77
2017-07-06T13:28:46.670Z,4.97
2017-07-06T13:31:14.495Z,5.40
2017-07-06T13:33:41.991Z,5.70
2017-07-06T13:36:09.507Z,6.87
2017-07-06T13:38:37.111Z,7.43
2017-07-06T13:41:04.612Z,6.73
2017-07-06T13:43:32.200Z,8.33
2017-07-06T13:46:00.247Z,5.40
2017-07-06T13:48:27.754Z,6.80
2017-07-06T13:50:55.260Z,8.10
2017-07-06T13:53:22.940Z,7.60
2017-07-06T13:55:50.453Z,10.93
2017-07-06T13:58:17.952Z,8.07
2017-07-06T14:00:45.605Z,13.23
2017-07-06T14:03:13.110Z,10.90
2017-07-06T14:05:40.617Z,8.50
2017-07-06T14:08:08.176Z,10.17
2017-07-06T14:10:35.685Z,6.70
2017-07-06T14:13:03.195Z,12.60
2017-07-06T14:15:30.785Z,6.63
2017-07-06T14:17:58.292Z,7.57
2017-07-06T14:20:26.430Z,7.07
2017-07-06T14:22:54.380Z,6.47
2017-07-06T14:25:22.037Z,7.27
2017-07-06T14:27:49.551Z,6.77
2017-07-06T14:30:17.392Z,8.30
2017-07-06T14:32:45.010Z,8.30
2017-07-06T14:35:12.818Z,10.50
2017-07-06T14:37:40.432Z,16.00
2017-07-06T14:40:07.951Z,7.30
2017-07-06T14:42:35.662Z,10.90
2017-07-06T14:45:03.960Z,8.97
2017-07-06T14:47:31.464Z,9.70
2017-07-06T14:49:58.980Z,10.23
2017-07-06T14:52:26.551Z,7.93
2017-07-06T14:54:54.048Z,9.50
2017-07-06T14:57:21.545Z,7.20
2017-07-06T14:59:49.359Z,7.63
2017-07-06T15:02:17.110Z,8.57
2017-07-06T15:04:44.613Z,7.57
2017-07-06T15:07:12.733Z,12.30
2017-07-06T15:09:40.237Z,8.67
2017-07-06T15:12:07.748Z,7.13
2017-07-06T15:14:36.007Z,6.50
2017-07-06T15:17:03.544Z,7.90
2017-07-06T15:19:31.052Z,14.23
2017-07-06T15:21:58.884Z,8.40
2017-07-06T15:24:26.683Z,7.50
2017-07-06T15:26:54.313Z,6.80
2017-07-06T15:29:22.062Z,6.57
2017-07-06T15:31:49.584Z,5.87
2017-07-06T15:34:17.212Z,8.23
2017-07-06T15:36:44.755Z,9.73
2017-07-06T15:39:12.263Z,6.47
2017-07-06T15:41:40.121Z,8.87
2017-07-06T15:44:07.686Z,10.43
2017-07-06T15:46:35.216Z,7.67
2017-07-06T15:49:02.775Z,9.70
2017-07-06T15:51:30.368Z,7.30
2017-07-06T15:53:58.004Z,6.40
2017-07-06T15:56:25.745Z,9.40
2017-07-06T15:58:53.529Z,10.80
2017-07-06T16:01:21.193Z,10.90
2017-07-06T16:03:49.541Z,6.33
2017-07-06T16:06:18.040Z,7.47
2017-07-06T16:08:45.817Z,6.50
2017-07-06T16:11:13.372Z,9.87
2017-07-06T16:13:40.949Z,5.30
2017-07-06T16:16:09.564Z,6.73
2017-07-06T16:18:37.822Z,9.80
2017-07-06T16:21:05.540Z,7.17
2017-07-06T16:23:34.539Z,7.10
2017-07-06T16:26:02.056Z,10.03
2017-07-06T16:28:29.576Z,5.50
2017-07-06T16:30:57.536Z,7.70
2017-07-06T16:33:25.316Z,6.50
2017-07-06T16:35:53.223Z,5.80
2017-07-06T16:38:21.093Z,6.43
2017-07-06T16:40:50.642Z,10.30
2017-07-06T16:43:18.463Z,6.57
2017-07-06T16:45:46.418Z,12.30
2017-07-06T16:48:14.148Z,7.83
2017-07-06T16:50:44.494Z,6.37
2017-07-06T16:53:12.327Z,8.87
2017-07-06T16:55:40.007Z,6.70
2017-07-06T16:58:07.755Z,8.23
2017-07-06T17:00:35.406Z,8.70
2017-07-06T17:03:02.928Z,6.60
2017-07-06T17:05:30.434Z,6.80
2017-07-06T17:07:58.046Z,11.03
2017-07-06T17:10:25.554Z,7.53
2017-07-06T17:12:53.113Z,6.03
2017-07-06T17:15:20.655Z,8.30
2017-07-06T17:17:48.160Z,7.80
2017-07-06T17:20:16.208Z,6.77
2017-07-06T17:22:43.803Z,10.00
2017-07-06T17:25:11.380Z,6.60
2017-07-06T17:27:38.891Z,8.23
2017-07-06T17:30:06.735Z,6.73
2017-07-06T17:32:34.243Z,7.37
2017-07-06T17:47:49.021Z,6.10
2017-07-06T17:50:16.556Z,7.13
2017-07-06T17:52:44.771Z,7.10
2017-07-06T17:55:12.340Z,9.73
2017-07-06T17:57:40.366Z,7.40
2017-07-06T18:00:08.055Z,13.70
2017-07-06T18:02:35.637Z,7.93
2017-07-06T18:05:04.651Z,8.63
2017-07-06T18:07:32.586Z,9.60
2017-07-06T18:10:01.239Z,9.73
2017-07-06T18:12:28.885Z,8.20
2017-07-06T18:14:56.592Z,8.30
2017-07-06T18:17:24.387Z,7.53
2017-07-06T18:19:52.061Z,7.00
2017-07-06T18:22:19.822Z,9.80
2017-07-06T18:24:48.440Z,8.20
2017-07-06T18:27:15.944Z,8.47
2017-07-06T18:29:43.565Z,8.23
2017-07-06T18:32:11.152Z,6.90
2017-07-06T18:34:38.670Z,10.53
2017-07-06T18:37:06.195Z,10.00
2017-07-06T18:39:34.337Z,7.50
2017-07-06T18:42:01.839Z,8.00
2017-07-06T18:44:29.351Z,9.63
2017-07-06T18:46:57.056Z,7.73
2017-07-06T18:49:24.551Z,8.70
2017-07-06T18:51:52.055Z,8.20
2017-07-06T18:54:19.761Z,9.90
2017-07-06T18:56:47.484Z,10.77
2017-07-06T18:59:15.308Z,9.53
2017-07-06T19:01:43.191Z,10.90
2017-07-06T19:04:10.730Z,8.47
2017-07-06T19:06:38.827Z,8.43
2017-07-06T19:09:06.493Z,8.60
2017-07-06T19:11:34.105Z,8.97
2017-07-06T19:14:01.616Z,10.30
2017-07-06T19:16:29.316Z,7.90
2017-07-06T19:18:56.872Z,9.10
2017-07-06T19:21:24.520Z,10.23
2017-07-06T19:23:52.203Z,11.87
2017-07-06T19:26:19.883Z,8.97
2017-07-06T19:28:47.407Z,9.30
2017-07-06T19:31:15.039Z,8.83
2017-07-06T19:33:42.552Z,7.43
2017-07-06T19:36:10.128Z,10.60
2017-07-06T19:38:37.921Z,11.70
2017-07-06T19:41:05.432Z,7.70
2017-07-06T19:43:32.941Z,12.23
2017-07-06T19:46:00.535Z,9.10
2017-07-06T19:48:28.072Z,13.20
2017-07-06T19:50:56.204Z,12.37
2017-07-06T19:53:23.822Z,11.70
2017-07-06T19:55:51.341Z,9.27
2017-07-06T19:58:18.867Z,12.07
2017-07-06T20:00:46.752Z,8.67
2017-07-06T20:03:14.257Z,9.63
2017-07-06T20:05:41.773Z,7.90
2017-07-06T20:08:09.827Z,14.33
2017-07-06T20:10:37.494Z,10.50
2017-07-06T20:13:05.227Z,9.70
2017-07-06T20:15:33.871Z,10.10
2017-07-06T20:18:01.776Z,8.77
2017-07-06T20:20:29.453Z,8.63
2017-07-06T20:22:57.031Z,9.40
2017-07-06T20:25:24.584Z,9.40
2017-07-06T20:27:52.257Z,11.33
2017-07-06T20:30:20.098Z,9.63
2017-07-06T20:32:47.622Z,9.63
2017-07-06T20:35:15.196Z,11.90
2017-07-06T20:37:42.920Z,11.90
2017-07-06T20:40:10.415Z,9.33
2017-07-06T20:42:38.660Z,11.67
2017-07-06T20:45:06.488Z,17.70
2017-07-06T20:47:34.347Z,19.83
2017-07-06T20:50:01.883Z,11.07
2017-07-06T20:52:29.438Z,9.03
2017-07-06T20:54:56.959Z,17.53
2017-07-06T20:57:24.594Z,11.70
2017-07-06T20:59:52.877Z,11.33
2017-07-06T21:05:01.518Z,7.53
2017-07-06T21:07:30.151Z,11.93
2017-07-06T21:09:58.005Z,8.40
2017-07-06T21:12:25.861Z,12.20
2017-07-06T21:14:53.502Z,8.83
2017-07-06T21:17:21.161Z,10.20
2017-07-06T21:19:49.355Z,8.63
2017-07-06T21:22:17.173Z,11.37
2017-07-06T21:24:44.677Z,9.53
2017-07-06T21:27:12.178Z,13.03
2017-07-06T21:29:40.055Z,11.50
2017-07-06T21:32:07.560Z,11.60
2017-07-06T21:34:35.103Z,17.90
2017-07-06T21:37:02.987Z,14.23
2017-07-06T21:39:30.597Z,10.93
2017-07-06T21:41:58.099Z,9.10
2017-07-06T21:44:26.007Z,8.33
2017-07-06T21:46:53.507Z,9.07
2017-07-06T21:49:21.695Z,8.03
2017-07-06T21:51:49.247Z,8.60
2017-07-06T21:54:16.809Z,10.63
2017-07-06T21:56:44.464Z,10.33
2017-07-06T21:59:12.021Z,13.80
2017-07-06T22:01:39.627Z,7.83
2017-07-06T22:04:07.105Z,8.67
2017-07-06T22:06:34.772Z,10.63
2017-07-06T22:09:02.515Z,12.37
2017-07-06T22:11:30.107Z,11.90
2017-07-06T22:13:58.035Z,9.97
2017-07-06T22:16:25.589Z,9.30
2017-07-06T22:18:53.257Z,12.50
2017-07-06T22:21:20.820Z,8.73
2017-07-06T22:23:48.473Z,8.53
2017-07-06T22:26:16.208Z,12.77
2017-07-06T22:28:43.880Z,8.27
2017-07-06T22:31:11.792Z,10.50
2017-07-06T22:33:39.326Z,10.47
2017-07-06T22:36:07.065Z,10.03
2017-07-06T22:38:34.997Z,10.30
2017-07-06T22:41:02.545Z,12.60
2017-07-06T22:43:30.232Z,17.37
2017-07-06T22:45:58.171Z,9.73
2017-07-06T22:48:25.704Z,11.97
2017-07-06T22:50:53.455Z,9.20
2017-07-06T22:53:20.972Z,10.83
2017-07-06T22:55:48.488Z,11.87
2017-07-06T22:58:16.041Z,8.93
2017-07-06T23:00:43.561Z,9.27
2017-07-06T23:03:11.156Z,10.57
2017-07-06T23:05:38.739Z,11.17
2017-07-06T23:08:06.248Z,12.20
2017-07-06T23:10:33.934Z,10.53
2017-07-06T23:13:01.486Z,8.33
2017-07-06T23:15:29.181Z,11.57
2017-07-06T23:17:56.767Z,14.47
2017-07-06T23:20:24.324Z,13.23
2017-07-06T23:22:51.855Z,10.83
2017-07-06T23:25:19.487Z,11.40
2017-07-06T23:27:47.046Z,7.90
2017-07-06T23:30:14.587Z,11.70
2017-07-06T23:32:42.102Z,14.30
2017-07-06T23:35:09.662Z,9.40
2017-07-06T23:37:38.058Z,14.63
2017-07-06T23:40:05.603Z,8.67
2017-07-06T23:42:33.254Z,11.60
2017-07-06T23:45:00.786Z,9.67
2017-07-06T23:47:28.324Z,12.27
2017-07-06T23:49:55.893Z,8.87
2017-07-06T23:52:23.394Z,8.40
2017-07-06T23:54:50.908Z,13.03
2017-07-06T23:57:18.515Z,12.40
2017-07-06T23:59:46.032Z,10.60
